Time;durP1;ratioP1;P1;durP2;ratioP2;P2;SDS_P1;SDS_P2;PMS_P1;PMS_P2;Temp;Humidity;BMP_temperature;BMP_pressure;BME280_temperature;BME280_humidity;BME280_pressure;Samples;Min_cycle;Max_cycle;Signal;HPM_P1;HPM_P2
2021/11/10 00:00:14;;;;;;;12.83;11.40;;;4.40;99.90;;;;;;5033803;28;20234;-65
2021/11/10 00:02:41;;;;;;;11.43;10.50;;;4.40;99.90;;;;;;5033887;28;20261;-65
2021/11/10 00:05:08;;;;;;;12.53;11.07;;;4.30;99.90;;;;;;5033747;28;20178;-66
2021/11/10 00:07:34;;;;;;;11.90;11.00;;;4.30;99.90;;;;;;5033798;28;20266;-65
2021/11/10 00:10:00;;;;;;;14.83;11.67;;;4.30;99.90;;;;;;5033466;28;20238;-66
2021/11/10 00:12:26;;;;;;;13.03;11.70;;;4.20;99.90;;;;;;5033946;28;20176;-66
2021/11/10 00:14:51;;;;;;;12.63;11.33;;;4.10;99.90;;;;;;5033842;28;20255;-66
2021/11/10 00:17:17;;;;;;;12.40;11.17;;;4.10;99.90;;;;;;5033293;28;20209;-66
2021/11/10 00:19:42;;;;;;;11.47;10.37;;;4.00;99.90;;;;;;5033378;28;20191;-66
2021/11/10 00:22:08;;;;;;;12.17;11.03;;;4.00;99.90;;;;;;5033534;28;20556;-66
2021/11/10 00:24:34;;;;;;;12.07;11.10;;;3.90;99.90;;;;;;5015796;28;20633;-65
2021/11/10 00:27:00;;;;;;;13.53;11.20;;;3.80;99.90;;;;;;5033519;28;20171;-66
2021/11/10 00:29:25;;;;;;;12.77;11.43;;;3.80;99.90;;;;;;5032498;28;20222;-66
2021/11/10 00:31:51;;;;;;;11.83;10.87;;;3.80;99.90;;;;;;5033546;28;20167;-66
2021/11/10 00:34:17;;;;;;;12.63;11.23;;;3.80;99.90;;;;;;5033228;28;20186;-65
2021/11/10 00:36:44;;;;;;;11.57;10.53;;;3.80;99.90;;;;;;5033140;28;20184;-65
2021/11/10 00:39:10;;;;;;;12.00;10.83;;;3.80;99.90;;;;;;5032773;28;20226;-66
2021/11/10 00:41:36;;;;;;;12.30;10.63;;;3.90;99.90;;;;;;5033303;28;20202;-65
2021/11/10 00:44:03;;;;;;;12.30;11.30;;;3.90;99.90;;;;;;5033246;28;20183;-65
2021/11/10 00:46:30;;;;;;;12.17;11.07;;;3.80;99.90;;;;;;5032998;28;20621;-66
2021/11/10 00:48:56;;;;;;;11.87;10.73;;;3.90;99.90;;;;;;5033020;28;20199;-65
2021/11/10 00:51:22;;;;;;;16.43;10.50;;;3.90;99.90;;;;;;5032430;28;20188;-65
2021/11/10 00:53:47;;;;;;;12.10;11.13;;;3.90;99.90;;;;;;5031798;28;20245;-65
2021/11/10 00:56:13;;;;;;;13.10;11.83;;;3.90;99.90;;;;;;5032654;28;20659;-66
2021/11/10 00:58:39;;;;;;;13.33;12.03;;;4.00;99.90;;;;;;5032774;28;20219;-66
2021/11/10 01:01:04;;;;;;;13.27;11.97;;;4.00;99.90;;;;;;5032136;28;20584;-66
2021/11/10 01:03:31;;;;;;;13.13;11.93;;;3.90;99.90;;;;;;5032714;28;20702;-65
2021/11/10 01:05:57;;;;;;;12.23;10.87;;;3.90;99.90;;;;;;5032801;28;20605;-65
2021/11/10 01:08:24;;;;;;;13.37;11.97;;;3.90;99.90;;;;;;5032639;28;20778;-65
2021/11/10 01:10:50;;;;;;;12.13;10.90;;;3.90;99.90;;;;;;5032416;28;20413;-65
2021/11/10 01:13:15;;;;;;;12.33;11.33;;;3.80;99.90;;;;;;5032433;28;20269;-65
2021/11/10 01:15:42;;;;;;;12.27;11.17;;;3.80;99.90;;;;;;5032429;28;20194;-66
2021/11/10 01:18:08;;;;;;;16.03;11.13;;;3.80;99.90;;;;;;5032423;28;20341;-65
2021/11/10 01:20:34;;;;;;;12.57;11.23;;;3.70;99.90;;;;;;5032016;28;20261;-65
2021/11/10 01:23:00;;;;;;;13.47;11.47;;;3.70;99.90;;;;;;5032545;28;20626;-65
2021/11/10 01:25:26;;;;;;;11.50;10.60;;;3.70;99.90;;;;;;5032132;28;20179;-65
2021/11/10 01:27:53;;;;;;;12.10;11.07;;;3.70;99.90;;;;;;5032355;28;20645;-65
2021/11/10 01:30:19;;;;;;;14.33;10.67;;;3.60;99.90;;;;;;5032025;28;20632;-66
2021/11/10 01:32:45;;;;;;;12.47;11.27;;;3.60;99.90;;;;;;5032136;28;20238;-66
2021/11/10 01:35:11;;;;;;;11.67;10.70;;;3.60;99.90;;;;;;5032095;28;20176;-66
2021/11/10 01:37:37;;;;;;;11.63;10.57;;;3.50;99.90;;;;;;5031790;28;20281;-65
2021/11/10 01:40:08;;;;;;;12.07;10.87;;;3.40;99.90;;;;;;5032011;28;20175;-65
2021/11/10 01:42:41;;;;;;;11.33;10.43;;;3.40;99.90;;;;;;5031957;28;20719;-65
2021/11/10 01:45:10;;;;;;;11.77;10.83;;;3.30;99.90;;;;;;5032014;28;20172;-65
2021/11/10 01:47:35;;;;;;;12.63;11.57;;;3.30;99.90;;;;;;5031703;28;20179;-66
2021/11/10 01:50:02;;;;;;;12.07;10.87;;;3.30;99.90;;;;;;5031699;28;20549;-65
2021/11/10 01:52:28;;;;;;;11.63;10.77;;;3.20;99.90;;;;;;5031693;28;20183;-65
2021/11/10 01:54:55;;;;;;;10.63;9.93;;;3.20;99.90;;;;;;5032062;28;20171;-65
2021/11/10 01:57:20;;;;;;;12.67;11.40;;;3.20;99.90;;;;;;5031237;28;20694;-65
2021/11/10 01:59:49;;;;;;;12.57;11.37;;;3.10;99.90;;;;;;5031563;28;20199;-66
2021/11/10 02:02:22;;;;;;;11.70;10.53;;;3.10;99.90;;;;;;5031585;28;20175;-65
2021/11/10 02:04:48;;;;;;;13.97;12.37;;;3.10;99.90;;;;;;5031989;28;20644;-65
2021/11/10 02:07:15;;;;;;;13.00;11.70;;;3.00;99.90;;;;;;5030891;28;20179;-66
2021/11/10 02:09:43;;;;;;;13.80;11.33;;;3.10;99.90;;;;;;5031242;28;20210;-65
2021/11/10 02:12:10;;;;;;;12.63;11.60;;;3.10;99.90;;;;;;5031431;28;20191;-64
2021/11/10 02:14:37;;;;;;;11.67;10.67;;;3.10;99.90;;;;;;5013980;28;20179;-66
2021/11/10 02:17:04;;;;;;;11.47;10.37;;;3.10;99.90;;;;;;5031415;28;20195;-66
2021/11/10 02:19:29;;;;;;;12.57;11.47;;;3.20;99.90;;;;;;5031115;28;20218;-66
2021/11/10 02:21:57;;;;;;;12.13;11.10;;;3.20;99.90;;;;;;5031586;28;20640;-65
2021/11/10 02:24:25;;;;;;;11.77;10.67;;;3.20;99.90;;;;;;5031274;28;20755;-65
2021/11/10 02:26:51;;;;;;;11.53;10.33;;;3.20;99.90;;;;;;5031566;28;20168;-65
2021/11/10 02:29:20;;;;;;;13.20;11.90;;;3.20;99.90;;;;;;5030481;28;20202;-65
2021/11/10 02:31:47;;;;;;;13.40;12.10;;;3.20;99.90;;;;;;5031528;28;20246;-65
2021/11/10 02:34:13;;;;;;;14.47;12.63;;;3.10;99.90;;;;;;5031191;28;20175;-65
2021/11/10 02:36:39;;;;;;;14.10;12.93;;;3.10;99.90;;;;;;5031502;28;20710;-65
2021/11/10 02:39:12;;;;;;;15.47;14.03;;;3.10;99.90;;;;;;5030733;28;20317;-65
2021/11/10 02:41:38;;;;;;;13.13;12.10;;;3.10;99.90;;;;;;5031397;28;20237;-65
2021/11/10 02:44:06;;;;;;;14.63;13.30;;;3.10;99.90;;;;;;5031142;28;20731;-65
2021/11/10 02:46:33;;;;;;;13.60;12.23;;;3.10;99.90;;;;;;5031409;28;20637;-66
2021/11/10 02:48:58;;;;;;;13.60;12.50;;;3.10;99.90;;;;;;5030830;28;20680;-67
2021/11/10 02:51:24;;;;;;;12.87;11.60;;;3.00;99.90;;;;;;5030804;28;20195;-65
2021/11/10 02:53:50;;;;;;;13.07;11.83;;;3.00;99.90;;;;;;5013418;28;20265;-65
2021/11/10 02:56:17;;;;;;;12.47;11.30;;;3.00;99.90;;;;;;5031263;28;20551;-65
2021/11/10 02:58:43;;;;;;;11.77;10.70;;;3.00;99.90;;;;;;5030761;28;20211;-64
2021/11/10 03:01:09;;;;;;;11.60;10.60;;;3.00;99.90;;;;;;5030811;28;20172;-65
2021/11/10 03:03:35;;;;;;;12.90;11.80;;;3.00;99.90;;;;;;5030981;28;20175;-66
2021/11/10 03:06:01;;;;;;;12.80;11.80;;;3.00;99.90;;;;;;5031058;28;20564;-64
2021/11/10 03:08:26;;;;;;;13.80;12.67;;;3.00;99.90;;;;;;5030934;28;20282;-65
2021/11/10 03:10:53;;;;;;;11.67;10.60;;;3.00;99.90;;;;;;5030911;28;20171;-65
2021/11/10 03:13:19;;;;;;;15.67;12.50;;;2.90;99.90;;;;;;5031428;28;20183;-69
2021/11/10 03:15:46;;;;;;;15.17;13.87;;;2.90;99.90;;;;;;5032363;28;20263;-68
2021/11/10 03:18:13;;;;;;;14.80;13.60;;;2.80;99.90;;;;;;5031670;28;20235;-66
2021/11/10 03:20:39;;;;;;;15.00;13.80;;;2.80;99.90;;;;;;5035670;28;20231;-68
2021/11/10 03:23:05;;;;;;;14.60;13.40;;;2.80;99.90;;;;;;5017810;28;20206;-69
2021/11/10 03:25:32;;;;;;;15.63;14.03;;;2.80;99.90;;;;;;5035609;28;20233;-67
2021/11/10 03:27:59;;;;;;;16.10;14.50;;;2.80;99.90;;;;;;5035812;28;20200;-69
2021/11/10 03:30:25;;;;;;;14.20;13.20;;;2.80;99.90;;;;;;5035396;28;20195;-67
2021/11/10 03:32:55;;;;;;;17.40;13.47;;;2.80;99.90;;;;;;5035734;28;20186;-68
2021/11/10 03:35:22;;;;;;;14.00;12.70;;;2.70;99.90;;;;;;5017842;28;20326;-71
2021/11/10 03:37:48;;;;;;;14.23;13.03;;;2.70;99.90;;;;;;5035612;28;20254;-68
2021/11/10 03:40:14;;;;;;;16.17;13.60;;;2.70;99.90;;;;;;5015642;28;20160;-68
2021/11/10 03:42:40;;;;;;;15.23;13.83;;;2.70;99.90;;;;;;5016100;28;20169;-71
2021/11/10 03:45:07;;;;;;;14.33;13.10;;;2.60;99.90;;;;;;5016319;28;20202;-67
2021/11/10 03:47:33;;;;;;;13.70;12.70;;;2.60;99.90;;;;;;5035343;28;20171;-67
2021/11/10 03:50:00;;;;;;;12.80;11.47;;;2.50;99.90;;;;;;5034692;28;20253;-67
2021/11/10 03:52:26;;;;;;;13.30;12.20;;;2.50;99.90;;;;;;5035297;28;20171;-66
2021/11/10 03:54:51;;;;;;;12.33;11.23;;;2.40;99.90;;;;;;5035267;28;20187;-68
2021/11/10 03:57:17;;;;;;;12.27;11.30;;;2.40;99.90;;;;;;5034853;28;20683;-70
2021/11/10 03:59:43;;;;;;;12.37;11.27;;;2.30;99.90;;;;;;5035251;28;20287;-69
2021/11/10 04:02:10;;;;;;;11.77;10.67;;;2.30;99.90;;;;;;5017024;28;20210;-69
2021/11/10 04:04:36;;;;;;;12.57;11.27;;;2.20;99.90;;;;;;5034912;28;20167;-68
2021/11/10 04:07:02;;;;;;;11.90;10.87;;;2.20;99.90;;;;;;5034596;28;20221;-66
2021/11/10 04:09:28;;;;;;;11.37;10.37;;;2.10;99.90;;;;;;5034408;28;20531;-67
2021/11/10 04:11:53;;;;;;;12.50;11.50;;;2.10;99.90;;;;;;5034984;28;20180;-66
2021/11/10 04:14:19;;;;;;;12.37;11.30;;;2.10;99.90;;;;;;5034864;28;20287;-68
2021/11/10 04:16:45;;;;;;;11.63;10.73;;;2.10;99.90;;;;;;5034738;28;20667;-69
2021/11/10 04:19:11;;;;;;;13.03;11.80;;;2.10;99.90;;;;;;5034462;28;20207;-69
2021/11/10 04:21:37;;;;;;;11.87;10.83;;;2.10;99.90;;;;;;5034549;28;20179;-68
2021/11/10 04:24:04;;;;;;;11.20;10.20;;;2.10;99.90;;;;;;5034652;28;20258;-67
2021/11/10 04:26:33;;;;;;;11.87;10.77;;;2.10;99.90;;;;;;5034754;28;20174;-70
2021/11/10 04:28:59;;;;;;;11.50;10.60;;;2.20;99.90;;;;;;5034667;28;20191;-69
2021/11/10 04:31:25;;;;;;;11.33;10.50;;;2.20;99.90;;;;;;5034314;28;20183;-70
2021/11/10 04:33:52;;;;;;;12.03;11.03;;;2.20;99.90;;;;;;5034419;28;20360;-68
2021/11/10 04:36:19;;;;;;;11.80;10.80;;;2.20;99.90;;;;;;5034496;28;20178;-69
2021/11/10 04:38:45;;;;;;;11.50;10.53;;;2.20;99.90;;;;;;5033990;28;20634;-69
2021/11/10 04:41:12;;;;;;;11.30;10.23;;;2.30;99.90;;;;;;5034464;28;20228;-68
2021/11/10 04:43:38;;;;;;;13.73;11.50;;;2.20;99.90;;;;;;5033808;28;20179;-68
2021/11/10 04:46:13;;;;;;;11.90;10.50;;;2.20;99.90;;;;;;5034363;28;20196;-69
2021/11/10 04:48:39;;;;;;;11.67;10.67;;;2.10;99.90;;;;;;5034223;28;20258;-67
2021/11/10 04:51:07;;;;;;;12.17;11.07;;;2.00;99.90;;;;;;5033885;28;20184;-67
2021/11/10 04:53:37;;;;;;;12.57;11.43;;;2.00;99.90;;;;;;5034072;28;20195;-67
2021/11/10 04:56:04;;;;;;;11.73;10.73;;;1.90;99.90;;;;;;5033616;28;20210;-64
2021/11/10 04:58:30;;;;;;;14.83;10.57;;;1.90;99.90;;;;;;5032737;28;20209;-64
2021/11/10 05:00:56;;;;;;;12.63;11.53;;;1.90;99.90;;;;;;5032508;28;20619;-64
2021/11/10 05:03:23;;;;;;;11.20;10.00;;;1.90;99.90;;;;;;5032645;28;20247;-64
2021/11/10 05:05:49;;;;;;;10.73;9.93;;;1.80;99.90;;;;;;5032658;28;20576;-65
2021/11/10 05:08:15;;;;;;;10.87;10.00;;;1.80;99.90;;;;;;5032621;28;20187;-64
2021/11/10 05:10:41;;;;;;;11.97;10.93;;;1.70;99.90;;;;;;5031121;28;20258;-65
2021/11/10 05:13:07;;;;;;;11.07;10.07;;;1.80;99.90;;;;;;5032639;28;20266;-65
2021/11/10 05:15:33;;;;;;;11.10;10.13;;;1.80;99.90;;;;;;5032412;28;20180;-65
2021/11/10 05:17:59;;;;;;;12.50;11.40;;;1.70;99.90;;;;;;5032556;28;20200;-64
2021/11/10 05:20:25;;;;;;;11.07;10.07;;;1.70;99.90;;;;;;5031817;28;20175;-64
2021/11/10 05:22:50;;;;;;;11.17;10.07;;;1.70;99.90;;;;;;5032547;28;20184;-64
2021/11/10 05:25:16;;;;;;;11.83;10.70;;;1.80;99.90;;;;;;5032097;28;20171;-65
2021/11/10 05:27:42;;;;;;;12.57;10.43;;;1.80;99.90;;;;;;5032309;28;20393;-64
2021/11/10 05:30:09;;;;;;;13.97;10.77;;;1.70;99.90;;;;;;5031881;28;20174;-64
2021/11/10 05:32:35;;;;;;;11.73;10.73;;;1.70;99.90;;;;;;5032038;28;20190;-64
2021/11/10 05:35:01;;;;;;;11.67;10.77;;;1.70;99.90;;;;;;5032297;28;20614;-64
2021/11/10 05:37:28;;;;;;;12.07;11.17;;;1.70;99.90;;;;;;5031926;28;20626;-65
2021/11/10 05:39:53;;;;;;;11.23;10.20;;;1.80;99.90;;;;;;5031787;28;20194;-65
2021/11/10 05:42:19;;;;;;;11.07;10.00;;;1.80;99.90;;;;;;5031174;28;20179;-65
2021/11/10 05:44:45;;;;;;;11.60;10.40;;;1.80;99.90;;;;;;5031838;28;20171;-64
2021/11/10 05:47:11;;;;;;;10.47;9.77;;;1.80;99.90;;;;;;5031870;28;20167;-64
2021/11/10 05:49:37;;;;;;;11.77;10.77;;;1.80;99.90;;;;;;5031291;28;20249;-65
2021/11/10 05:52:04;;;;;;;10.23;9.43;;;1.80;99.90;;;;;;5032024;28;20648;-65
2021/11/10 05:54:30;;;;;;;10.93;10.10;;;1.70;99.90;;;;;;5031790;28;20210;-65
2021/11/10 05:56:55;;;;;;;11.47;10.67;;;1.70;99.90;;;;;;5032026;28;20638;-65
2021/11/10 05:59:21;;;;;;;11.50;10.33;;;1.60;99.90;;;;;;5031133;28;20310;-64
2021/11/10 06:01:48;;;;;;;10.90;10.10;;;1.60;99.90;;;;;;5031507;28;20271;-64
2021/11/10 06:04:14;;;;;;;11.73;10.73;;;1.50;99.90;;;;;;5031728;28;20167;-64
2021/11/10 06:06:39;;;;;;;12.63;11.50;;;1.50;99.90;;;;;;5031484;28;20175;-64
2021/11/10 06:09:05;;;;;;;11.47;10.47;;;1.50;99.90;;;;;;5031369;28;20583;-64
2021/11/10 06:11:31;;;;;;;12.07;10.97;;;1.60;99.90;;;;;;5031307;28;20183;-64
2021/11/10 06:13:57;;;;;;;11.70;10.77;;;1.60;99.90;;;;;;5031595;28;20183;-64
2021/11/10 06:16:23;;;;;;;12.37;11.23;;;1.50;99.90;;;;;;5031241;28;20298;-64
2021/11/10 06:18:48;;;;;;;13.23;10.53;;;1.60;99.90;;;;;;5031386;28;20210;-64
2021/11/10 06:21:14;;;;;;;12.87;11.57;;;1.60;99.90;;;;;;5031038;28;20175;-64
2021/11/10 06:23:40;;;;;;;11.90;10.70;;;1.60;99.90;;;;;;5031467;28;20648;-64
2021/11/10 06:26:06;;;;;;;11.47;10.57;;;1.50;99.90;;;;;;5031186;28;20230;-64
2021/11/10 06:28:32;;;;;;;11.63;10.63;;;1.50;99.90;;;;;;5013997;28;20694;-64
2021/11/10 06:30:58;;;;;;;11.63;10.67;;;1.50;99.90;;;;;;5034628;28;20187;-64
2021/11/10 06:33:23;;;;;;;11.57;10.67;;;1.40;99.90;;;;;;5031391;28;20190;-64
2021/11/10 06:35:49;;;;;;;10.67;9.90;;;1.40;99.90;;;;;;5031180;28;20183;-64
2021/11/10 06:38:15;;;;;;;13.33;11.43;;;1.40;99.90;;;;;;5030952;28;20214;-64
2021/11/10 06:40:41;;;;;;;13.27;11.93;;;1.50;99.90;;;;;;5031197;28;20172;-64
2021/11/10 06:43:06;;;;;;;12.97;11.77;;;1.60;99.90;;;;;;5030897;28;20180;-65
2021/11/10 06:45:32;;;;;;;14.40;12.10;;;1.60;99.90;;;;;;5013297;28;20183;-65
2021/11/10 06:47:57;;;;;;;13.57;12.43;;;1.50;99.90;;;;;;5031572;28;20190;-65
2021/11/10 06:50:23;;;;;;;11.40;10.63;;;1.50;99.90;;;;;;5031125;28;20240;-64
2021/11/10 06:52:49;;;;;;;13.10;12.00;;;1.50;99.90;;;;;;5031211;28;20651;-65
2021/11/10 06:55:14;;;;;;;12.17;11.07;;;1.60;99.90;;;;;;5017847;28;20171;-65
2021/11/10 06:57:40;;;;;;;11.83;10.93;;;1.60;99.90;;;;;;5034561;28;20268;-65
2021/11/10 07:00:08;;;;;;;12.10;11.20;;;1.60;99.90;;;;;;5033436;28;20558;-65
2021/11/10 07:02:34;;;;;;;14.27;12.83;;;1.60;99.90;;;;;;5034808;28;20199;-65
2021/11/10 07:05:00;;;;;;;11.93;11.03;;;1.60;99.90;;;;;;5034885;28;20172;-64
2021/11/10 07:07:25;;;;;;;13.80;12.57;;;1.70;99.90;;;;;;5034478;28;20254;-65
2021/11/10 07:09:51;;;;;;;12.73;11.63;;;1.70;99.90;;;;;;5034247;28;20609;-65
2021/11/10 07:12:17;;;;;;;12.30;11.13;;;1.80;99.90;;;;;;5034695;28;20187;-65
2021/11/10 07:14:42;;;;;;;13.13;11.90;;;1.90;99.90;;;;;;5034914;28;20662;-64
2021/11/10 07:17:08;;;;;;;16.47;12.10;;;2.00;99.90;;;;;;5034203;28;20183;-65
2021/11/10 07:19:37;;;;;;;12.57;11.67;;;2.00;99.90;;;;;;5034174;28;20199;-65
2021/11/10 07:22:02;;;;;;;13.33;11.67;;;2.00;99.90;;;;;;5016606;28;20180;-65
2021/11/10 07:24:29;;;;;;;13.60;12.30;;;2.10;99.90;;;;;;5034527;28;20259;-65
2021/11/10 07:26:56;;;;;;;15.90;11.50;;;2.10;99.90;;;;;;5034329;28;20172;-65
2021/11/10 07:29:22;;;;;;;13.33;12.03;;;2.20;99.90;;;;;;5033951;28;20213;-65
2021/11/10 07:31:47;;;;;;;12.90;11.60;;;2.20;99.90;;;;;;5034212;28;20467;-64
2021/11/10 07:34:13;;;;;;;13.90;12.70;;;2.30;99.90;;;;;;5034625;28;20179;-65
2021/11/10 07:36:39;;;;;;;16.77;15.33;;;2.30;99.90;;;;;;5034128;28;20183;-64
2021/11/10 07:39:05;;;;;;;14.33;13.13;;;2.40;99.90;;;;;;5033750;28;20266;-64
2021/11/10 07:41:33;;;;;;;14.77;13.27;;;2.40;99.90;;;;;;5034182;28;20191;-64
2021/11/10 07:43:59;;;;;;;15.27;14.10;;;2.40;99.90;;;;;;5033906;28;20543;-64
2021/11/10 07:46:29;;;;;;;15.03;13.60;;;2.50;99.90;;;;;;5033851;28;20180;-65
2021/11/10 07:48:54;;;;;;;16.20;14.60;;;2.50;99.90;;;;;;5033911;28;20570;-64
2021/11/10 07:51:20;;;;;;;15.87;14.33;;;2.60;99.90;;;;;;5033917;28;20176;-64
2021/11/10 07:53:47;;;;;;;14.17;12.87;;;2.60;99.90;;;;;;5033809;28;20648;-65
2021/11/10 07:56:12;;;;;;;13.87;12.60;;;2.70;99.90;;;;;;5033737;28;20642;-64
2021/11/10 07:58:40;;;;;;;16.20;14.57;;;2.90;99.90;;;;;;5033693;28;20228;-65
2021/11/10 08:01:06;;;;;;;17.33;13.00;;;3.20;99.90;;;;;;5033205;28;20172;-64
2021/11/10 08:03:32;;;;;;;16.47;12.77;;;3.70;99.90;;;;;;5016052;28;20202;-64
2021/11/10 08:05:59;;;;;;;14.63;12.80;;;4.20;99.90;;;;;;5032917;28;20187;-65
2021/11/10 08:08:25;;;;;;;15.17;12.17;;;4.70;99.90;;;;;;5033660;28;20201;-64
2021/11/10 08:10:53;;;;;;;12.87;11.67;;;5.10;99.90;;;;;;5015607;28;20270;-64
2021/11/10 08:13:19;;;;;;;12.20;10.87;;;5.50;99.90;;;;;;5033510;28;20179;-65
2021/11/10 08:15:45;;;;;;;13.00;11.70;;;5.60;99.90;;;;;;5033407;28;20306;-64
2021/11/10 08:18:10;;;;;;;14.77;11.40;;;5.70;99.90;;;;;;5033256;28;20219;-64
2021/11/10 08:20:36;;;;;;;12.30;11.10;;;5.70;99.90;;;;;;5033084;28;20191;-65
2021/11/10 08:23:02;;;;;;;12.97;11.83;;;5.90;99.90;;;;;;5033672;28;20194;-64
2021/11/10 08:25:27;;;;;;;12.70;11.07;;;6.10;99.90;;;;;;5033158;28;20186;-65
2021/11/10 08:27:55;;;;;;;12.53;11.13;;;6.10;99.90;;;;;;5033247;28;20214;-64
2021/11/10 08:30:22;;;;;;;13.50;12.20;;;6.30;99.90;;;;;;5014979;28;20180;-64
2021/11/10 08:32:49;;;;;;;19.37;14.20;;;6.40;99.90;;;;;;5033538;28;20190;-65
2021/11/10 08:35:15;;;;;;;13.10;11.70;;;6.50;99.90;;;;;;5015109;28;20183;-64
2021/11/10 08:37:42;;;;;;;13.80;12.37;;;6.90;99.90;;;;;;5033049;28;20578;-65
2021/11/10 08:40:09;;;;;;;12.50;11.23;;;7.20;99.90;;;;;;5032541;28;20183;-65
2021/11/10 08:42:36;;;;;;;14.07;12.03;;;7.60;99.90;;;;;;5033270;28;20536;-65
2021/11/10 08:45:06;;;;;;;12.40;11.30;;;7.90;99.90;;;;;;5031979;28;20184;-65
2021/11/10 08:47:32;;;;;;;12.07;10.50;;;8.30;99.90;;;;;;5032944;28;20179;-64
2021/11/10 08:49:59;;;;;;;11.83;10.83;;;8.80;99.90;;;;;;5032646;28;20293;-65
2021/11/10 08:52:27;;;;;;;11.87;10.60;;;9.10;99.90;;;;;;5032758;28;20191;-65
2021/11/10 08:54:53;;;;;;;11.20;10.20;;;9.30;99.90;;;;;;5032842;28;20175;-65
2021/11/10 08:57:19;;;;;;;11.77;9.23;;;9.40;99.90;;;;;;5032480;28;20185;-65
2021/11/10 08:59:45;;;;;;;14.50;9.40;;;9.50;99.90;;;;;;5032043;28;20649;-65
2021/11/10 09:02:11;;;;;;;9.87;9.00;;;9.70;99.90;;;;;;5032708;28;20254;-65
2021/11/10 09:04:36;;;;;;;9.60;8.90;;;9.90;99.90;;;;;;5032637;28;20617;-65
2021/11/10 09:07:03;;;;;;;10.63;9.53;;;10.10;99.90;;;;;;5032426;28;20257;-65
2021/11/10 09:09:28;;;;;;;9.77;8.77;;;10.40;99.90;;;;;;5032481;28;20191;-65
2021/11/10 09:11:54;;;;;;;8.90;8.03;;;10.90;99.90;;;;;;5032434;28;20183;-65
2021/11/10 09:14:22;;;;;;;8.87;8.07;;;11.20;99.90;;;;;;5032678;28;20221;-65
2021/11/10 09:16:48;;;;;;;9.37;8.53;;;11.70;99.90;;;;;;5031510;28;20528;-65
2021/11/10 09:19:14;;;;;;;9.13;8.23;;;12.20;99.90;;;;;;5031893;28;20245;-65
2021/11/10 09:21:40;;;;;;;9.20;8.40;;;12.40;99.90;;;;;;5032307;28;20688;-65
2021/11/10 09:24:06;;;;;;;9.33;8.53;;;12.70;99.90;;;;;;5032280;28;20230;-65
2021/11/10 09:26:32;;;;;;;9.07;8.13;;;13.10;99.90;;;;;;5032396;28;20195;-65
2021/11/10 09:28:58;;;;;;;8.77;7.60;;;13.30;99.90;;;;;;5031729;28;20250;-65
2021/11/10 09:31:24;;;;;;;9.57;8.57;;;13.60;99.90;;;;;;5032195;28;20271;-65
2021/11/10 09:33:54;;;;;;;10.30;7.80;;;13.80;99.90;;;;;;5032750;28;20183;-65
2021/11/10 09:36:20;;;;;;;10.00;8.60;;;14.00;99.90;;;;;;5032081;28;20176;-65
2021/11/10 09:38:46;;;;;;;8.93;8.13;;;14.40;99.90;;;;;;5031789;28;20558;-65
2021/11/10 09:41:12;;;;;;;8.10;7.37;;;14.70;99.90;;;;;;5031759;28;20183;-65
2021/11/10 09:43:41;;;;;;;8.57;7.90;;;15.10;99.90;;;;;;5031676;28;20183;-65
2021/11/10 09:46:09;;;;;;;12.73;8.17;;;15.50;99.90;;;;;;5032102;28;20183;-65
2021/11/10 09:48:35;;;;;;;8.87;7.60;;;15.70;99.90;;;;;;5031783;28;20234;-65
2021/11/10 09:51:03;;;;;;;9.30;8.40;;;16.10;99.90;;;;;;5030984;28;20645;-65
2021/11/10 09:53:28;;;;;;;9.30;8.47;;;16.20;99.90;;;;;;5031615;28;20301;-65
2021/11/10 09:55:55;;;;;;;11.23;7.97;;;16.40;99.90;;;;;;5031476;28;20514;-65
2021/11/10 09:58:22;;;;;;;9.43;8.27;;;16.80;99.90;;;;;;5085342;22;20239;-65
2021/11/10 10:00:56;;;;;;;9.30;8.40;;;17.00;99.90;;;;;;5071691;28;20228;-65
2021/11/10 10:03:22;;;;;;;10.17;8.50;;;17.20;99.90;;;;;;5071585;28;20629;-65
2021/11/10 10:05:49;;;;;;;10.20;8.67;;;16.80;99.90;;;;;;5071525;28;20826;-65
2021/11/10 10:08:20;;;;;;;9.93;8.20;;;16.80;99.90;;;;;;5070803;28;20186;-65
2021/11/10 10:10:47;;;;;;;9.20;8.30;;;16.70;99.90;;;;;;5071313;28;20197;-65
2021/11/10 10:13:14;;;;;;;10.03;9.00;;;16.50;99.90;;;;;;5071476;28;20198;-65
2021/11/10 10:15:42;;;;;;;9.07;8.27;;;16.30;99.90;;;;;;5071720;28;20184;-65
2021/11/10 10:18:22;;;;;;;11.07;8.77;;;16.00;99.90;;;;;;5071307;28;20277;-65
2021/11/10 10:20:54;;;;;;;10.43;9.13;;;15.80;99.90;;;;;;5071509;28;20162;-65
2021/11/10 10:23:22;;;;;;;10.13;9.00;;;15.60;99.90;;;;;;5071236;28;20205;-65
2021/11/10 10:25:53;;;;;;;9.83;8.50;;;15.30;99.90;;;;;;5071110;28;20262;-65
2021/11/10 10:28:31;;;;;;;9.77;8.77;;;14.90;99.90;;;;;;5070874;28;20194;-64
2021/11/10 10:31:07;;;;;;;9.93;9.00;;;14.40;99.90;;;;;;5071404;28;20653;-65
2021/11/10 10:33:39;;;;;;;10.90;8.30;;;14.10;99.90;;;;;;5071428;28;20551;-65
2021/11/10 10:36:09;;;;;;;10.07;8.77;;;13.90;99.90;;;;;;5071164;28;20170;-65
2021/11/10 10:38:54;;;;;;;11.00;9.83;;;13.70;99.90;;;;;;5071138;28;20209;-65
2021/11/10 10:41:24;;;;;;;10.53;9.33;;;13.30;99.90;;;;;;5070860;28;20546;-65
2021/11/10 10:43:55;;;;;;;11.20;10.00;;;13.00;99.90;;;;;;5071074;28;20196;-64
2021/11/10 10:46:27;;;;;;;11.07;9.87;;;12.70;99.90;;;;;;5065050;28;20182;-65
2021/11/10 10:49:09;;;;;;;9.37;8.47;;;12.40;99.90;;;;;;5057032;28;20199;-65
2021/11/10 10:51:35;;;;;;;11.27;10.03;;;12.10;99.90;;;;;;5068446;28;20550;-65
2021/11/10 10:54:06;;;;;;;10.90;9.10;;;11.90;99.90;;;;;;5070966;28;20174;-65
2021/11/10 10:56:35;;;;;;;11.60;10.43;;;11.90;99.90;;;;;;5070520;28;20266;-64
2021/11/10 10:59:02;;;;;;;13.23;9.87;;;11.80;99.90;;;;;;5070519;28;20284;-65
2021/11/10 11:01:37;;;;;;;12.37;9.37;;;11.90;99.90;;;;;;5062886;28;20174;-65
2021/11/10 11:04:17;;;;;;;10.67;9.57;;;12.10;99.90;;;;;;5070844;28;20689;-65
2021/11/10 11:06:49;;;;;;;11.77;10.03;;;12.40;99.90;;;;;;5057699;28;20179;-65
2021/11/10 11:09:26;;;;;;;10.93;9.73;;;12.60;99.90;;;;;;5050419;28;20197;-65
2021/11/10 11:11:56;;;;;;;14.67;9.97;;;12.80;99.90;;;;;;5064635;28;20239;-65
2021/11/10 11:14:37;;;;;;;11.03;10.00;;;12.90;99.90;;;;;;5065775;28;20213;-64
2021/11/10 11:17:18;;;;;;;10.13;9.23;;;12.90;99.90;;;;;;5050917;28;20648;-64
2021/11/10 11:20:06;;;;;;;12.10;10.00;;;12.90;99.90;;;;;;5057314;28;20208;-64
2021/11/10 11:22:38;;;;;;;14.63;10.87;;;12.90;99.90;;;;;;5071038;28;20712;-64
2021/11/10 11:25:31;;;;;;;12.03;10.27;;;13.00;99.90;;;;;;5061181;28;20183;-64
2021/11/10 11:28:03;;;;;;;11.30;10.13;;;13.00;99.90;;;;;;5050737;28;20171;-64
2021/11/10 11:30:31;;;;;;;15.40;10.90;;;12.90;99.90;;;;;;5062571;28;20183;-65
2021/11/10 11:33:00;;;;;;;12.07;10.80;;;12.80;99.90;;;;;;5070893;28;20174;-64
2021/11/10 11:35:37;;;;;;;13.03;11.60;;;12.90;99.90;;;;;;5059323;28;20182;-65
2021/11/10 11:38:09;;;;;;;13.20;10.67;;;13.20;99.90;;;;;;5032560;28;20191;-65
2021/11/10 11:40:37;;;;;;;11.50;10.30;;;13.70;99.90;;;;;;5060520;28;20186;-65
2021/11/10 11:43:06;;;;;;;12.40;10.20;;;14.20;99.90;;;;;;5057988;28;20178;-65
2021/11/10 11:45:36;;;;;;;13.83;10.13;;;14.70;99.90;;;;;;5054426;28;20175;-65
2021/11/10 11:48:04;;;;;;;10.97;9.83;;;15.10;99.90;;;;;;5064142;28;20216;-65
2021/11/10 11:50:30;;;;;;;11.53;10.00;;;15.40;99.90;;;;;;5070604;28;20531;-65
2021/11/10 11:52:57;;;;;;;10.00;9.03;;;15.70;99.90;;;;;;5054107;28;20569;-65
2021/11/10 11:55:28;;;;;;;10.10;9.10;;;15.90;99.90;;;;;;5055347;28;20196;-64
2021/11/10 11:58:05;;;;;;;11.13;10.03;;;15.90;99.90;;;;;;5073763;28;20206;-64
2021/11/10 12:00:35;;;;;;;9.50;8.60;;;16.00;99.90;;;;;;5071787;28;20192;-64
2021/11/10 12:03:02;;;;;;;9.63;8.67;;;15.90;99.90;;;;;;5057270;28;20229;-65
2021/11/10 12:05:28;;;;;;;10.07;9.07;;;15.90;99.90;;;;;;5053947;28;20591;-65
2021/11/10 12:07:57;;;;;;;9.90;8.60;;;16.00;99.90;;;;;;5055193;28;20636;-65
2021/11/10 12:10:23;;;;;;;9.73;8.73;;;16.00;99.90;;;;;;5053380;28;20178;-65
2021/11/10 12:13:19;;;;;;;9.77;8.67;;;15.90;99.90;;;;;;5062817;28;20186;-65
2021/11/10 12:16:07;;;;;;;10.83;9.73;;;15.60;99.90;;;;;;5073549;28;20188;-65
2021/11/10 12:18:48;;;;;;;10.67;9.67;;;15.20;99.90;;;;;;5059210;28;20210;-65
2021/11/10 12:21:19;;;;;;;9.90;8.93;;;15.10;99.90;;;;;;5053134;28;20253;-65
2021/11/10 12:23:54;;;;;;;13.23;10.17;;;14.80;99.90;;;;;;5068435;28;20185;-65
2021/11/10 12:26:23;;;;;;;12.27;9.57;;;14.50;99.90;;;;;;5073318;28;20515;-65
2021/11/10 12:28:57;;;;;;;11.57;10.20;;;14.50;99.90;;;;;;5058427;28;20209;-65
2021/11/10 12:31:39;;;;;;;9.93;8.97;;;14.40;99.90;;;;;;5053016;28;20178;-65
2021/11/10 12:34:28;;;;;;;11.40;9.30;;;14.10;99.90;;;;;;5069552;28;20178;-64
2021/11/10 12:36:58;;;;;;;10.23;8.80;;;14.10;99.90;;;;;;5057061;28;20229;-64
2021/11/10 12:39:38;;;;;;;13.57;9.27;;;14.20;99.90;;;;;;5053071;28;20210;-64